Time;durP1;ratioP1;P1;durP2;ratioP2;P2;SDS_P1;SDS_P2;PMS_P1;PMS_P2;Temp;Humidity;BMP_temperature;BMP_pressure;BME280_temperature;BME280_humidity;BME280_pressure;Samples;Min_cycle;Max_cycle;Signal;HPM_P1;HPM_P2
2023/12/28 00:00:00;;;;;;;;;;;;;;;;;;5070721;28;19945;-71
2023/12/28 00:02:26;;;;;;;;;;;;;;;;;;5066991;28;19954;-71
2023/12/28 00:04:52;;;;;;;;;;;;;;;;;;5066084;28;20262;-70
2023/12/28 00:07:18;;;;;;;;;;;;;;;;;;5066621;28;19940;-71
2023/12/28 00:09:44;;;;;;;;;;;;;;;;;;5070568;28;19924;-71
2023/12/28 00:12:10;;;;;;;;;;;;;;;;;;5067362;28;20278;-72
2023/12/28 00:14:36;;;;;;;;;;;;;;;;;;5069934;28;19925;-71
2023/12/28 00:17:02;;;;;;;;;;;;;;;;;;5066919;28;19938;-71
2023/12/28 00:19:28;;;;;;;;;;;;;;;;;;5068851;28;20006;-71
2023/12/28 00:21:54;;;;;;;;;;;;;;;;;;5062944;28;19925;-71
2023/12/28 00:24:20;;;;;;;;;;;;;;;;;;5067256;28;19920;-71
2023/12/28 00:26:46;;;;;;;;;;;;;;;;;;5070615;28;19920;-71
2023/12/28 00:29:12;;;;;;;;;;;;;;;;;;5067985;28;19925;-71
2023/12/28 00:31:37;;;;;;;;;;;;;;;;;;5068067;28;20366;-71
2023/12/28 00:34:03;;;;;;;;;;;;;;;;;;5070463;28;19921;-71
2023/12/28 00:36:29;;;;;;;;;;;;;;;;;;5069747;28;19935;-71
2023/12/28 00:38:55;;;;;;;;;;;;;;;;;;5066848;28;19943;-71
2023/12/28 00:41:21;;;;;;;;;;;;;;;;;;5066441;28;19924;-71
2023/12/28 00:43:47;;;;;;;;;;;;;;;;;;5070411;28;20346;-71
2023/12/28 00:46:13;;;;;;;;;;;;;;;;;;5068308;28;19930;-71
2023/12/28 00:48:39;;;;;;;;;;;;;;;;;;5066173;28;19924;-71
2023/12/28 00:51:05;;;;;;;;;;;;;;;;;;5071767;28;19928;-71
2023/12/28 00:53:31;;;;;;;;;;;;;;;;;;5064468;28;19921;-71
2023/12/28 00:55:57;;;;;;;;;;;;;;;;;;5069163;28;19966;-71
2023/12/28 00:58:23;;;;;;;;;;;;;;;;;;5063053;28;19924;-71
2023/12/28 01:00:48;;;;;;;;;;;;;;;;;;5060972;28;20319;-71
2023/12/28 01:03:14;;;;;;;;;;;;;;;;;;5067454;28;19948;-71
2023/12/28 01:05:40;;;;;;;;;;;;;;;;;;5062093;28;19924;-71
2023/12/28 01:08:06;;;;;;;;;;;;;;;;;;5061992;28;19925;-71
2023/12/28 01:10:32;;;;;;;;;;;;;;;;;;5052882;28;19924;-70
2023/12/28 01:12:58;;;;;;;;;;;;;;;;;;5070498;28;20003;-71
2023/12/28 01:15:24;;;;;;;;;;;;;;;;;;5058440;28;19924;-71
2023/12/28 01:17:50;;;;;;;;;;;;;;;;;;5083189;28;19929;-70
2023/12/28 01:20:16;;;;;;;;;;;;;;;;;;5059482;28;19924;-71
2023/12/28 01:22:42;;;;;;;;;;;;;;;;;;5064534;28;20313;-71
2023/12/28 01:25:08;;;;;;;;;;;;;;;;;;5059108;28;19927;-71
2023/12/28 01:27:34;;;;;;;;;;;;;;;;;;5064544;28;20572;-71
2023/12/28 01:29:59;;;;;;;;;;;;;;;;;;5062462;28;19924;-72
2023/12/28 01:32:25;;;;;;;;;;;;;;;;;;5061980;28;20004;-71
2023/12/28 01:34:51;;;;;;;;;;;;;;;;;;5075653;28;19927;-70
2023/12/28 01:37:17;;;;;;;;;;;;;;;;;;5057160;28;19954;-71
2023/12/28 01:39:43;;;;;;;;;;;;;;;;;;5055608;28;20290;-70
2023/12/28 01:42:09;;;;;;;;;;;;;;;;;;5066593;28;19927;-70
2023/12/28 01:44:35;;;;;;;;;;;;;;;;;;5055526;28;19921;-70
2023/12/28 01:47:01;;;;;;;;;;;;;;;;;;5065607;28;19924;-71
2023/12/28 01:49:27;;;;;;;;;;;;;;;;;;5070590;28;19928;-72
2023/12/28 01:51:53;;;;;;;;;;;;;;;;;;5064074;28;19925;-71
2023/12/28 01:54:19;;;;;;;;;;;;;;;;;;5060410;28;19920;-70
2023/12/28 01:56:44;;;;;;;;;;;;;;;;;;5064614;28;19925;-72
2023/12/28 01:59:10;;;;;;;;;;;;;;;;;;5063444;28;20290;-71
2023/12/28 02:01:36;;;;;;;;;;;;;;;;;;5064765;28;20473;-71
2023/12/28 02:04:02;;;;;;;;;;;;;;;;;;5063588;28;20291;-71
2023/12/28 02:06:28;;;;;;;;;;;;;;;;;;5067234;28;20407;-71
2023/12/28 02:08:54;;;;;;;;;;;;;;;;;;5062377;28;19928;-71
2023/12/28 02:11:20;;;;;;;;;;;;;;;;;;5060300;28;20273;-71
2023/12/28 02:13:46;;;;;;;;;;;;;;;;;;5064468;28;19931;-71
2023/12/28 02:16:12;;;;;;;;;;;;;;;;;;5061891;28;20007;-72
2023/12/28 02:18:38;;;;;;;;;;;;;;;;;;5057837;28;19921;-71
2023/12/28 02:21:04;;;;;;;;;;;;;;;;;;5064475;28;20392;-72
2023/12/28 02:23:30;;;;;;;;;;;;;;;;;;5054513;28;19927;-71
2023/12/28 02:25:56;;;;;;;;;;;;;;;;;;5064562;28;19924;-71
2023/12/28 02:28:21;;;;;;;;;;;;;;;;;;5061596;28;20019;-71
2023/12/28 02:30:47;;;;;;;;;;;;;;;;;;5058321;28;19955;-70
2023/12/28 02:33:13;;;;;;;;;;;;;;;;;;5061175;28;20635;-70
2023/12/28 02:35:39;;;;;;;;;;;;;;;;;;5065256;28;20007;-70
2023/12/28 02:38:05;;;;;;;;;;;;;;;;;;5060427;28;19925;-71
2023/12/28 02:40:31;;;;;;;;;;;;;;;;;;5061866;28;19921;-71
2023/12/28 02:42:57;;;;;;;;;;;;;;;;;;5061703;28;19920;-71
2023/12/28 02:45:23;;;;;;;;;;;;;;;;;;5059867;28;21041;-70
2023/12/28 02:47:49;;;;;;;;;;;;;;;;;;5058050;28;19929;-71
2023/12/28 02:50:15;;;;;;;;;;;;;;;;;;5060486;28;19920;-71
2023/12/28 02:52:40;;;;;;;;;;;;;;;;;;5056587;28;19920;-71
2023/12/28 02:55:06;;;;;;;;;;;;;;;;;;5058460;28;19927;-70
2023/12/28 02:57:32;;;;;;;;;;;;;;;;;;5060519;28;20275;-71
2023/12/28 03:00:01;;;;;;;;;;;;;;;;;;5055743;28;19938;-72
2023/12/28 03:02:27;;;;;;;;;;;;;;;;;;5060777;28;19921;-71
2023/12/28 03:04:53;;;;;;;;;;;;;;;;;;5067270;28;19931;-71
2023/12/28 03:07:19;;;;;;;;;;;;;;;;;;5071330;28;19925;-71
2023/12/28 03:09:45;;;;;;;;;;;;;;;;;;5052936;28;20413;-71
2023/12/28 03:12:10;;;;;;;;;;;;;;;;;;5059460;28;19925;-71
2023/12/28 03:14:36;;;;;;;;;;;;;;;;;;5047276;28;19925;-71
2023/12/28 03:17:02;;;;;;;;;;;;;;;;;;5062899;28;19924;-70
2023/12/28 03:19:28;;;;;;;;;;;;;;;;;;5069526;28;19920;-70
2023/12/28 03:21:54;;;;;;;;;;;;;;;;;;5067035;28;19920;-71
2023/12/28 03:24:20;;;;;;;;;;;;;;;;;;5065828;28;20057;-71
2023/12/28 03:26:46;;;;;;;;;;;;;;;;;;5065560;28;20461;-70
2023/12/28 03:29:12;;;;;;;;;;;;;;;;;;5066923;28;19931;-70
2023/12/28 03:31:38;;;;;;;;;;;;;;;;;;5067647;28;19921;-71
2023/12/28 03:34:04;;;;;;;;;;;;;;;;;;5067225;28;19920;-70
2023/12/28 03:36:30;;;;;;;;;;;;;;;;;;5066820;28;20290;-71
2023/12/28 03:38:56;;;;;;;;;;;;;;;;;;5065428;28;19920;-71
2023/12/28 03:41:21;;;;;;;;;;;;;;;;;;5068250;28;19921;-71
2023/12/28 03:43:48;;;;;;;;;;;;;;;;;;5061248;28;19921;-71
2023/12/28 03:46:13;;;;;;;;;;;;;;;;;;5048473;28;19932;-71
2023/12/28 03:48:39;;;;;;;;;;;;;;;;;;5063680;28;20546;-71
2023/12/28 03:51:05;;;;;;;;;;;;;;;;;;5049496;28;20249;-71
2023/12/28 03:53:31;;;;;;;;;;;;;;;;;;5066650;28;19929;-71
2023/12/28 03:55:57;;;;;;;;;;;;;;;;;;5065864;28;19925;-71
2023/12/28 03:58:23;;;;;;;;;;;;;;;;;;5063042;28;20288;-72
2023/12/28 04:00:49;;;;;;;;;;;;;;;;;;5062071;28;19920;-71
2023/12/28 04:03:15;;;;;;;;;;;;;;;;;;5057262;28;19924;-72
2023/12/28 04:05:41;;;;;;;;;;;;;;;;;;5062605;28;19931;-71
2023/12/28 04:08:07;;;;;;;;;;;;;;;;;;5073931;28;19924;-71
2023/12/28 04:10:33;;;;;;;;;;;;;;;;;;5069445;28;20480;-71
2023/12/28 04:13:00;;;;;;;;;;;;;;;;;;5064155;28;19972;-72
2023/12/28 04:15:25;;;;;;;;;;;;;;;;;;5060752;28;19947;-71
2023/12/28 04:17:51;;;;;;;;;;;;;;;;;;5066570;28;20370;-71
2023/12/28 04:20:17;;;;;;;;;;;;;;;;;;5057160;28;19925;-70
2023/12/28 04:22:44;;;;;;;;;;;;;;;;;;5067274;28;20015;-71
2023/12/28 04:25:10;;;;;;;;;;;;;;;;;;5067358;28;20014;-72
2023/12/28 04:27:36;;;;;;;;;;;;;;;;;;5066438;28;20470;-71
2023/12/28 04:30:02;;;;;;;;;;;;;;;;;;5061537;28;20411;-70
2023/12/28 04:32:28;;;;;;;;;;;;;;;;;;5068599;28;19921;-70
2023/12/28 04:34:53;;;;;;;;;;;;;;;;;;5068148;28;20011;-70
2023/12/28 04:37:19;;;;;;;;;;;;;;;;;;5065366;28;20293;-71
2023/12/28 04:39:45;;;;;;;;;;;;;;;;;;5069329;28;19936;-71
2023/12/28 04:42:11;;;;;;;;;;;;;;;;;;5068144;28;19928;-71
2023/12/28 04:44:38;;;;;;;;;;;;;;;;;;5065559;28;20453;-72
2023/12/28 04:47:04;;;;;;;;;;;;;;;;;;5068087;28;19924;-71
2023/12/28 04:49:30;;;;;;;;;;;;;;;;;;5051907;28;20366;-72
2023/12/28 04:51:56;;;;;;;;;;;;;;;;;;5058020;28;19931;-71
2023/12/28 04:54:22;;;;;;;;;;;;;;;;;;5071390;28;19973;-71
2023/12/28 04:56:48;;;;;;;;;;;;;;;;;;5067166;28;19924;-71
2023/12/28 04:59:13;;;;;;;;;;;;;;;;;;5066841;28;20007;-71
2023/12/28 05:01:39;;;;;;;;;;;;;;;;;;5061274;28;20018;-72
2023/12/28 05:04:05;;;;;;;;;;;;;;;;;;5057798;28;20497;-71
2023/12/28 05:06:31;;;;;;;;;;;;;;;;;;5066008;28;20008;-70
2023/12/28 05:08:57;;;;;;;;;;;;;;;;;;5069402;28;19924;-71
2023/12/28 05:11:23;;;;;;;;;;;;;;;;;;5065200;28;19999;-71
2023/12/28 05:13:49;;;;;;;;;;;;;;;;;;5065529;28;20286;-71
2023/12/28 05:16:15;;;;;;;;;;;;;;;;;;5060605;28;19921;-71
2023/12/28 05:18:41;;;;;;;;;;;;;;;;;;5049957;28;19920;-71
2023/12/28 05:21:07;;;;;;;;;;;;;;;;;;5064023;28;19942;-71
2023/12/28 05:23:33;;;;;;;;;;;;;;;;;;5065072;28;20390;-71
2023/12/28 05:25:58;;;;;;;;;;;;;;;;;;5061455;28;19920;-71
2023/12/28 05:28:24;;;;;;;;;;;;;;;;;;5069406;28;19924;-71
2023/12/28 05:30:50;;;;;;;;;;;;;;;;;;5057090;28;19920;-71
2023/12/28 05:33:17;;;;;;;;;;;;;;;;;;5059172;28;19974;-70
2023/12/28 05:35:43;;;;;;;;;;;;;;;;;;5063583;28;19927;-71
2023/12/28 05:38:08;;;;;;;;;;;;;;;;;;5064873;28;19999;-71
2023/12/28 05:40:34;;;;;;;;;;;;;;;;;;5064427;28;19928;-72
2023/12/28 05:43:00;;;;;;;;;;;;;;;;;;5063905;28;19932;-72
2023/12/28 05:45:27;;;;;;;;;;;;;;;;;;5065311;28;19929;-71
2023/12/28 05:47:52;;;;;;;;;;;;;;;;;;5063844;28;20537;-72
2023/12/28 05:50:18;;;;;;;;;;;;;;;;;;5064072;28;19931;-72
2023/12/28 05:52:44;;;;;;;;;;;;;;;;;;5069049;28;19974;-71
2023/12/28 05:55:10;;;;;;;;;;;;;;;;;;5064458;28;19927;-72
2023/12/28 05:57:36;;;;;;;;;;;;;;;;;;5068000;28;19920;-72
2023/12/28 06:00:04;;;;;;;;;;;;;;;;;;5060638;28;19936;-71
2023/12/28 06:02:30;;;;;;;;;;;;;;;;;;5062765;28;19920;-71
2023/12/28 06:04:55;;;;;;;;;;;;;;;;;;5052116;28;19925;-71
2023/12/28 06:07:21;;;;;;;;;;;;;;;;;;5066625;28;19946;-70
2023/12/28 06:09:48;;;;;;;;;;;;;;;;;;5062846;28;19924;-71
2023/12/28 06:12:14;;;;;;;;;;;;;;;;;;5063020;28;20447;-71
2023/12/28 06:14:40;;;;;;;;;;;;;;;;;;5059848;28;19929;-70
2023/12/28 06:17:06;;;;;;;;;;;;;;;;;;5063568;28;19943;-71
2023/12/28 06:19:33;;;;;;;;;;;;;;;;;;5065755;28;19936;-71
2023/12/28 06:21:59;;;;;;;;;;;;;;;;;;5065500;28;19920;-71
2023/12/28 06:24:25;;;;;;;;;;;;;;;;;;5068875;28;19935;-72
2023/12/28 06:26:50;;;;;;;;;;;;;;;;;;5063415;28;19925;-72
2023/12/28 06:29:16;;;;;;;;;;;;;;;;;;5066471;28;19970;-72
2023/12/28 06:31:42;;;;;;;;;;;;;;;;;;5063365;28;19944;-72
2023/12/28 06:34:08;;;;;;;;;;;;;;;;;;5065504;28;19924;-72
2023/12/28 06:36:34;;;;;;;;;;;;;;;;;;5064940;28;20397;-70
2023/12/28 06:39:00;;;;;;;;;;;;;;;;;;5072578;28;19925;-70
2023/12/28 06:41:26;;;;;;;;;;;;;;;;;;5060797;28;19924;-71
2023/12/28 06:43:52;;;;;;;;;;;;;;;;;;5066444;28;19944;-71
2023/12/28 06:46:18;;;;;;;;;;;;;;;;;;5062006;28;19925;-71
2023/12/28 06:48:46;;;;;;;;;;;;;;;;;;5065536;28;21611;-71
2023/12/28 06:51:12;;;;;;;;;;;;;;;;;;5045090;28;20267;-71
2023/12/28 06:53:38;;;;;;;;;;;;;;;;;;5057957;28;19924;-71
2023/12/28 06:56:04;;;;;;;;;;;;;;;;;;5060689;28;19935;-71
2023/12/28 06:58:30;;;;;;;;;;;;;;;;;;5066533;28;19964;-72
2023/12/28 07:00:57;;;;;;;;;;;;;;;;;;5062299;28;19927;-72
2023/12/28 07:03:25;;;;;;;;;;;;;;;;;;5066670;28;20015;-72
2023/12/28 07:05:51;;;;;;;;;;;;;;;;;;5058851;28;20023;-72
2023/12/28 07:08:17;;;;;;;;;;;;;;;;;;5051855;28;19985;-72
2023/12/28 07:10:43;;;;;;;;;;;;;;;;;;5048029;28;19925;-71
2023/12/28 07:13:09;;;;;;;;;;;;;;;;;;5059914;28;19921;-71
2023/12/28 07:15:35;;;;;;;;;;;;;;;;;;5056436;28;19924;-71
2023/12/28 07:18:01;;;;;;;;;;;;;;;;;;5057315;28;19959;-72
2023/12/28 07:20:27;;;;;;;;;;;;;;;;;;5051918;28;19971;-71
2023/12/28 07:22:53;;;;;;;;;;;;;;;;;;5062111;28;19955;-71
2023/12/28 07:25:19;;;;;;;;;;;;;;;;;;5074184;22;19982;-68
2023/12/28 07:27:45;;;;;;;;;;;;;;;;;;5109115;28;19924;-68
2023/12/28 07:30:11;;;;;;;;;;;;;;;;;;5108411;28;19920;-68
2023/12/28 07:32:36;;;;;;;;;;;;;;;;;;5110238;28;20349;-69
2023/12/28 07:35:02;;;;;;;;;;;;;;;;;;5105042;28;19924;-69
2023/12/28 07:37:28;;;;;;;;;;;;;;;;;;5105124;28;19934;-69
2023/12/28 07:39:54;;;;;;;;;;;;;;;;;;5113107;28;19923;-69
2023/12/28 07:42:20;;;;;;;;;;;;;;;;;;5109248;28;20007;-69
2023/12/28 07:44:46;;;;;;;;;;;;;;;;;;5108089;28;20011;-68
2023/12/28 07:47:12;;;;;;;;;;;;;;;;;;5114619;28;19923;-68
2023/12/28 07:49:38;;;;;;;;;;;;;;;;;;5103845;28;19920;-69
2023/12/28 07:52:04;;;;;;;;;;;;;;;;;;5100898;28;20046;-68
2023/12/28 07:54:30;;;;;;;;;;;;;;;;;;5106536;28;19924;-68
2023/12/28 07:56:56;;;;;;;;;;;;;;;;;;5106528;28;19977;-69
2023/12/28 07:59:22;;;;;;;;;;;;;;;;;;5109230;28;19967;-69
2023/12/28 08:01:48;;;;;;;;;;;;;;;;;;5103966;28;19958;-68
2023/12/28 08:04:14;;;;;;;;;;;;;;;;;;5099400;28;19959;-68
2023/12/28 08:06:40;;;;;;;;;;;;;;;;;;5112405;28;20392;-68
2023/12/28 08:09:06;;;;;;;;;;;;;;;;;;5105450;28;19970;-68
2023/12/28 08:11:32;;;;;;;;;;;;;;;;;;5102926;28;19955;-68
2023/12/28 08:13:58;;;;;;;;;;;;;;;;;;5106564;28;19927;-68
2023/12/28 08:16:23;;;;;;;;;;;;;;;;;;5113483;28;19920;-68
2023/12/28 08:18:49;;;;;;;;;;;;;;;;;;5099332;28;19920;-68
2023/12/28 08:21:15;;;;;;;;;;;;;;;;;;5113224;28;19951;-69
2023/12/28 08:23:42;;;;;;;;;;;;;;;;;;5100425;28;19942;-69
2023/12/28 08:26:08;;;;;;;;;;;;;;;;;;5094213;28;19924;-67
2023/12/28 08:28:33;;;;;;;;;;;;;;;;;;5112641;28;19976;-68
2023/12/28 08:30:59;;;;;;;;;;;;;;;;;;5113757;28;19924;-68
2023/12/28 08:33:25;;;;;;;;;;;;;;;;;;5104164;28;19924;-68
2023/12/28 08:35:51;;;;;;;;;;;;;;;;;;5107059;28;19942;-68
2023/12/28 08:38:17;;;;;;;;;;;;;;;;;;5113841;28;19925;-69
2023/12/28 08:40:44;;;;;;;;;;;;;;;;;;5104468;28;20560;-68
2023/12/28 08:43:10;;;;;;;;;;;;;;;;;;5096986;28;19926;-69
2023/12/28 08:45:36;;;;;;;;;;;;;;;;;;5113388;28;19924;-69
2023/12/28 08:48:01;;;;;;;;;;;;;;;;;;5111665;28;20010;-69
2023/12/28 08:50:27;;;;;;;;;;;;;;;;;;5108613;28;19966;-68
2023/12/28 08:52:53;;;;;;;;;;;;;;;;;;5108071;28;19923;-69
2023/12/28 08:55:19;;;;;;;;;;;;;;;;;;5112024;28;20014;-69
2023/12/28 08:57:45;;;;;;;;;;;;;;;;;;5112328;28;20011;-69
2023/12/28 09:00:11;;;;;;;;;;;;;;;;;;5112126;28;19926;-69
2023/12/28 09:02:37;;;;;;;;;;;;;;;;;;5113358;28;20014;-69
2023/12/28 09:05:03;;;;;;;;;;;;;;;;;;5108091;28;19930;-69
2023/12/28 09:07:29;;;;;;;;;;;;;;;;;;5096007;28;20388;-69
2023/12/28 09:09:55;;;;;;;;;;;;;;;;;;5097830;27;19924;-69
2023/12/28 09:12:21;;;;;;;;;;;;;;;;;;5111688;28;19920;-69
2023/12/28 09:14:47;;;;;;;;;;;;;;;;;;5100341;28;19946;-69
2023/12/28 09:17:13;;;;;;;;;;;;;;;;;;5106657;28;20010;-67
2023/12/28 09:19:39;;;;;;;;;;;;;;;;;;5112210;28;19920;-68
2023/12/28 09:22:05;;;;;;;;;;;;;;;;;;5110926;28;19923;-68
2023/12/28 09:24:31;;;;;;;;;;;;;;;;;;5101201;28;20061;-68
2023/12/28 09:26:57;;;;;;;;;;;;;;;;;;5108945;28;20416;-68
2023/12/28 09:29:23;;;;;;;;;;;;;;;;;;5098718;28;20415;-68
2023/12/28 09:31:48;;;;;;;;;;;;;;;;;;5092100;28;19966;-69
2023/12/28 09:34:14;;;;;;;;;;;;;;;;;;5108236;28;19970;-68
2023/12/28 09:36:40;;;;;;;;;;;;;;;;;;5099723;28;19920;-69
2023/12/28 09:39:07;;;;;;;;;;;;;;;;;;5105969;28;19924;-68
2023/12/28 09:41:33;;;;;;;;;;;;;;;;;;5102642;28;20014;-69
2023/12/28 09:43:59;;;;;;;;;;;;;;;;;;5106491;28;20060;-69
2023/12/28 09:46:26;;;;;;;;;;;;;;;;;;5101672;28;19988;-68
2023/12/28 09:48:53;;;;;;;;;;;;;;;;;;5095641;28;19928;-68
2023/12/28 09:51:19;;;;;;;;;;;;;;;;;;5094029;28;19927;-69
2023/12/28 09:53:45;;;;;;;;;;;;;;;;;;5104674;28;20280;-69
2023/12/28 09:56:11;;;;;;;;;;;;;;;;;;5106507;28;19921;-69
2023/12/28 09:58:37;;;;;;;;;;;;;;;;;;5103815;28;19924;-69
2023/12/28 10:01:03;;;;;;;;;;;;;;;;;;5101231;28;19924;-68
2023/12/28 10:03:29;;;;;;;;;;;;;;;;;;5101461;28;20357;-69
2023/12/28 10:05:55;;;;;;;;;;;;;;;;;;5097616;28;19933;-69
2023/12/28 10:08:21;;;;;;;;;;;;;;;;;;5092737;27;20970;-68
2023/12/28 10:10:50;;;;;;;;;;;;;;;;;;5100971;28;20336;-68
2023/12/28 10:13:16;;;;;;;;;;;;;;;;;;5104433;28;19927;-67
2023/12/28 10:15:43;;;;;;;;;;;;;;;;;;5108435;27;20382;-69
2023/12/28 10:18:09;;;;;;;;;;;;;;;;;;5107029;28;19957;-68
2023/12/28 10:20:35;;;;;;;;;;;;;;;;;;5108129;28;20346;-68
2023/12/28 10:23:01;;;;;;;;;;;;;;;;;;5107732;28;19928;-69
2023/12/28 10:25:27;;;;;;;;;;;;;;;;;;5101725;27;19928;-69
2023/12/28 10:27:53;;;;;;;;;;;;;;;;;;5106963;28;21252;-69
2023/12/28 10:30:19;;;;;;;;;;;;;;;;;;5099818;27;19919;-70
2023/12/28 10:32:45;;;;;;;;;;;;;;;;;;5102709;27;19935;-69
2023/12/28 10:35:10;;;;;;;;;;;;;;;;;;5105736;27;20422;-69
2023/12/28 10:37:36;;;;;;;;;;;;;;;;;;5106779;28;19920;-68
2023/12/28 10:40:02;;;;;;;;;;;;;;;;;;5111627;27;20015;-69
2023/12/28 10:42:30;;;;;;;;;;;;;;;;;;5100804;28;19928;-69
2023/12/28 10:44:57;;;;;;;;;;;;;;;;;;5108752;28;19969;-69
2023/12/28 10:47:23;;;;;;;;;;;;;;;;;;5108916;27;19924;-67
2023/12/28 10:49:48;;;;;;;;;;;;;;;;;;5096068;28;20454;-70
2023/12/28 10:52:14;;;;;;;;;;;;;;;;;;5102420;28;19932;-67
2023/12/28 10:54:40;;;;;;;;;;;;;;;;;;5099371;28;19969;-68
2023/12/28 10:57:06;;;;;;;;;;;;;;;;;;5105495;28;19923;-67
2023/12/28 10:59:32;;;;;;;;;;;;;;;;;;5104942;28;20617;-68
2023/12/28 11:01:58;;;;;;;;;;;;;;;;;;5097873;28;19920;-68
2023/12/28 11:04:24;;;;;;;;;;;;;;;;;;5097035;28;19973;-68
2023/12/28 11:06:50;;;;;;;;;;;;;;;;;;5103997;28;19973;-68
2023/12/28 11:09:16;;;;;;;;;;;;;;;;;;5102200;28;19928;-69
2023/12/28 11:11:42;;;;;;;;;;;;;;;;;;5104521;28;19973;-68
2023/12/28 11:14:08;;;;;;;;;;;;;;;;;;5099578;28;19931;-68
2023/12/28 11:16:34;;;;;;;;;;;;;;;;;;5109095;28;19924;-68
2023/12/28 11:19:00;;;;;;;;;;;;;;;;;;5100368;28;20015;-68
2023/12/28 11:21:26;;;;;;;;;;;;;;;;;;5100991;28;19934;-68
2023/12/28 11:23:52;;;;;;;;;;;;;;;;;;5111018;28;19924;-69
2023/12/28 11:26:19;;;;;;;;;;;;;;;;;;5108702;28;19924;-69
2023/12/28 11:28:45;;;;;;;;;;;;;;;;;;5088579;28;19924;-69
2023/12/28 11:31:11;;;;;;;;;;;;;;;;;;5103625;28;19920;-69
2023/12/28 11:33:37;;;;;;;;;;;;;;;;;;5103142;28;19924;-69
2023/12/28 11:36:03;;;;;;;;;;;;;;;;;;5107549;28;19973;-68
2023/12/28 11:38:30;;;;;;;;;;;;;;;;;;5107531;28;19920;-69
2023/12/28 11:40:57;;;;;;;;;;;;;;;;;;5112004;28;19973;-70
2023/12/28 11:43:23;;;;;;;;;;;;;;;;;;5111015;28;19923;-69
2023/12/28 11:45:50;;;;;;;;;;;;;;;;;;5112050;28;19932;-69
2023/12/28 11:48:16;;;;;;;;;;;;;;;;;;5101909;28;19926;-69
2023/12/28 11:50:42;;;;;;;;;;;;;;;;;;5112922;28;19920;-69
2023/12/28 11:53:08;;;;;;;;;;;;;;;;;;5102896;28;20680;-69
2023/12/28 11:55:34;;;;;;;;;;;;;;;;;;5105373;28;19936;-69
2023/12/28 11:58:00;;;;;;;;;;;;;;;;;;5106661;28;19973;-69
2023/12/28 12:00:26;;;;;;;;;;;;;;;;;;5110932;28;20019;-69
2023/12/28 12:02:52;;;;;;;;;;;;;;;;;;5110931;28;19920;-69
2023/12/28 12:05:17;;;;;;;;;;;;;;;;;;5100333;28;19935;-69
2023/12/28 12:07:43;;;;;;;;;;;;;;;;;;5105631;28;19938;-69
2023/12/28 12:10:09;;;;;;;;;;;;;;;;;;5105545;28;19972;-69
2023/12/28 12:12:35;;;;;;;;;;;;;;;;;;5110108;28;19924;-70
2023/12/28 12:15:01;;;;;;;;;;;;;;;;;;5092428;28;19924;-70
2023/12/28 12:17:27;;;;;;;;;;;;;;;;;;5107424;28;19920;-69
2023/12/28 12:19:55;;;;;;;;;;;;;;;;;;5088307;28;20377;-69
2023/12/28 12:22:21;;;;;;;;;;;;;;;;;;5101206;28;19962;-69
2023/12/28 12:24:48;;;;;;;;;;;;;;;;;;5105236;28;19924;-69
2023/12/28 12:27:14;;;;;;;;;;;;;;;;;;5102638;28;20376;-69
2023/12/28 12:29:39;;;;;;;;;;;;;;;;;;5106540;28;19923;-68
2023/12/28 12:32:06;;;;;;;;;;;;;;;;;;5105982;28;20002;-68
2023/12/28 12:34:32;;;;;;;;;;;;;;;;;;5107465;28;19920;-69
2023/12/28 12:36:59;;;;;;;;;;;;;;;;;;5103591;28;19926;-68
2023/12/28 12:39:24;;;;;;;;;;;;;;;;;;5105318;28;20349;-69
2023/12/28 12:41:51;;;;;;;;;;;;;;;;;;5113166;28;19919;-69
2023/12/28 12:44:18;;;;;;;;;;;;;;;;;;5107263;28;19919;-69
2023/12/28 12:46:44;;;;;;;;;;;;;;;;;;5112006;28;19935;-69
2023/12/28 12:49:10;;;;;;;;;;;;;;;;;;5111021;28;19920;-69
2023/12/28 12:51:36;;;;;;;;;;;;;;;;;;5098804;28;19927;-69
2023/12/28 12:54:02;;;;;;;;;;;;;;;;;;5106533;28;19927;-69
2023/12/28 12:56:28;;;;;;;;;;;;;;;;;;5102967;28;19919;-69
2023/12/28 12:58:54;;;;;;;;;;;;;;;;;;5100739;28;20613;-69
2023/12/28 13:01:20;;;;;;;;;;;;;;;;;;5095687;28;19930;-69
2023/12/28 13:03:46;;;;;;;;;;;;;;;;;;5106747;28;19920;-70
2023/12/28 13:06:12;;;;;;;;;;;;;;;;;;5099789;28;19924;-69
2023/12/28 13:08:38;;;;;;;;;;;;;;;;;;5103900;28;19923;-69
2023/12/28 13:11:06;;;;;;;;;;;;;;;;;;5102953;27;19923;-69
2023/12/28 13:13:32;;;;;;;;;;;;;;;;;;5108673;28;19924;-69
2023/12/28 13:15:58;;;;;;;;;;;;;;;;;;5097693;28;20369;-69
2023/12/28 13:18:24;;;;;;;;;;;;;;;;;;5103311;28;19931;-69
2023/12/28 13:20:50;;;;;;;;;;;;;;;;;;5107541;28;19924;-70
2023/12/28 13:23:16;;;;;;;;;;;;;;;;;;5101611;27;19931;-69
2023/12/28 13:25:42;;;;;;;;;;;;;;;;;;5102749;27;19928;-69
2023/12/28 13:28:09;;;;;;;;;;;;;;;;;;5102728;27;20414;-70
2023/12/28 13:30:36;;;;;;;;;;;;;;;;;;5082301;28;19947;-69
2023/12/28 13:33:02;;;;;;;;;;;;;;;;;;5099678;27;20404;-69
2023/12/28 13:35:28;;;;;;;;;;;;;;;;;;5091327;28;19923;-69
2023/12/28 13:37:54;;;;;;;;;;;;;;;;;;5088532;28;19931;-67
2023/12/28 13:40:20;;;;;;;;;;;;;;;;;;5093917;28;19924;-67
2023/12/28 13:42:46;;;;;;;;;;;;;;;;;;5094178;28;19988;-67
2023/12/28 13:45:12;;;;;;;;;;;;;;;;;;5102594;27;20339;-67
2023/12/28 13:47:38;;;;;;;;;;;;;;;;;;5108221;28;20013;-68
2023/12/28 13:50:04;;;;;;;;;;;;;;;;;;5082194;27;19932;-69
2023/12/28 13:52:30;;;;;;;;;;;;;;;;;;5085139;27;19948;-68
2023/12/28 13:54:56;;;;;;;;;;;;;;;;;;5101831;28;19947;-69
2023/12/28 13:57:22;;;;;;;;;;;;;;;;;;5084978;28;19959;-69
2023/12/28 13:59:48;;;;;;;;;;;;;;;;;;5105470;28;19946;-68
2023/12/28 14:02:14;;;;;;;;;;;;;;;;;;5111442;28;20368;-68
2023/12/28 14:04:40;;;;;;;;;;;;;;;;;;5104620;28;19924;-69
2023/12/28 14:07:05;;;;;;;;;;;;;;;;;;5108043;28;19919;-68
2023/12/28 14:09:32;;;;;;;;;;;;;;;;;;5107539;28;19940;-68
2023/12/28 14:11:58;;;;;;;;;;;;;;;;;;5102329;28;19920;-68
2023/12/28 14:14:24;;;;;;;;;;;;;;;;;;5095577;28;20691;-68
2023/12/28 14:16:50;;;;;;;;;;;;;;;;;;5106694;28;19923;-68
2023/12/28 14:19:16;;;;;;;;;;;;;;;;;;5102261;28;19930;-68
2023/12/28 14:21:42;;;;;;;;;;;;;;;;;;5108963;28;19942;-69
2023/12/28 14:24:09;;;;;;;;;;;;;;;;;;5108325;28;19960;-70
2023/12/28 14:26:35;;;;;;;;;;;;;;;;;;5100177;28;20426;-69
2023/12/28 14:29:05;;;;;;;;;;;;;;;;;;5106643;28;19920;-69
2023/12/28 14:31:31;;;;;;;;;;;;;;;;;;5082751;28;20431;-70
2023/12/28 14:33:57;;;;;;;;;;;;;;;;;;5111042;28;19924;-69
2023/12/28 14:36:23;;;;;;;;;;;;;;;;;;5112110;28;20002;-69
2023/12/28 14:38:49;;;;;;;;;;;;;;;;;;5112091;28;20006;-69
2023/12/28 14:41:14;;;;;;;;;;;;;;;;;;5102233;28;20006;-69
2023/12/28 14:43:40;;;;;;;;;;;;;;;;;;5109074;28;19919;-69
2023/12/28 14:46:06;;;;;;;;;;;;;;;;;;5113985;27;19931;-69
2023/12/28 14:48:32;;;;;;;;;;;;;;;;;;5099702;28;20422;-69
2023/12/28 14:50:58;;;;;;;;;;;;;;;;;;5108975;28;19924;-69
2023/12/28 14:53:25;;;;;;;;;;;;;;;;;;5102343;28;19931;-69
2023/12/28 14:55:51;;;;;;;;;;;;;;;;;;5099509;28;20343;-69
2023/12/28 14:58:19;;;;;;;;;;;;;;;;;;5105902;28;19965;-69
2023/12/28 15:00:45;;;;;;;;;;;;;;;;;;5093519;28;19997;-70
2023/12/28 15:03:11;;;;;;;;;;;;;;;;;;5106195;28;20331;-71
2023/12/28 15:05:36;;;;;;;;;;;;;;;;;;5093853;28;19939;-70
2023/12/28 15:08:02;;;;;;;;;;;;;;;;;;5095862;28;19928;-70
2023/12/28 15:10:28;;;;;;;;;;;;;;;;;;5107311;28;19927;-70
2023/12/28 15:12:54;;;;;;;;;;;;;;;;;;5091048;28;19938;-71
2023/12/28 15:15:20;;;;;;;;;;;;;;;;;;5110061;28;19923;-70
2023/12/28 15:17:46;;;;;;;;;;;;;;;;;;5099833;28;19924;-70
2023/12/28 15:20:12;;;;;;;;;;;;;;;;;;5096100;28;20392;-70
2023/12/28 15:22:38;;;;;;;;;;;;;;;;;;5104809;28;19958;-70
2023/12/28 15:25:06;;;;;;;;;;;;;;;;;;5104072;28;19989;-70
2023/12/28 15:27:31;;;;;;;;;;;;;;;;;;5107830;28;19968;-70
2023/12/28 15:29:57;;;;;;;;;;;;;;;;;;5106823;28;19924;-70
2023/12/28 15:32:23;;;;;;;;;;;;;;;;;;5107382;28;20217;-70
2023/12/28 15:34:49;;;;;;;;;;;;;;;;;;5088495;28;19927;-70
2023/12/28 15:37:15;;;;;;;;;;;;;;;;;;5101987;28;20289;-70
2023/12/28 15:39:42;;;;;;;;;;;;;;;;;;5108699;28;19923;-69
2023/12/28 15:42:08;;;;;;;;;;;;;;;;;;5104681;28;19920;-70
2023/12/28 15:44:34;;;;;;;;;;;;;;;;;;5094544;28;19927;-70
2023/12/28 15:47:00;;;;;;;;;;;;;;;;;;5105621;28;19997;-70
2023/12/28 15:49:26;;;;;;;;;;;;;;;;;;5096140;28;20015;-69
2023/12/28 15:51:52;;;;;;;;;;;;;;;;;;5086839;28;20006;-69
2023/12/28 15:54:18;;;;;;;;;;;;;;;;;;5095115;28;19927;-69
2023/12/28 15:56:43;;;;;;;;;;;;;;;;;;5088850;28;20381;-70
2023/12/28 15:59:09;;;;;;;;;;;;;;;;;;5091887;28;19924;-70
2023/12/28 16:01:35;;;;;;;;;;;;;;;;;;5106549;28;19931;-70
2023/12/28 16:04:01;;;;;;;;;;;;;;;;;;5112860;28;19923;-70
2023/12/28 16:06:27;;;;;;;;;;;;;;;;;;5100616;28;19935;-70
2023/12/28 16:08:53;;;;;;;;;;;;;;;;;;5112673;28;19927;-70
2023/12/28 16:11:19;;;;;;;;;;;;;;;;;;5112742;28;19974;-70
2023/12/28 16:13:45;;;;;;;;;;;;;;;;;;5105383;28;20688;-69
2023/12/28 16:16:11;;;;;;;;;;;;;;;;;;5110741;28;19930;-69
2023/12/28 16:18:37;;;;;;;;;;;;;;;;;;5111972;28;20377;-69
2023/12/28 16:21:03;;;;;;;;;;;;;;;;;;5088842;28;19920;-70
2023/12/28 16:23:29;;;;;;;;;;;;;;;;;;5112151;28;19924;-70
2023/12/28 16:25:55;;;;;;;;;;;;;;;;;;5111624;28;19935;-70
2023/12/28 16:28:21;;;;;;;;;;;;;;;;;;5105991;28;20328;-70
2023/12/28 16:30:47;;;;;;;;;;;;;;;;;;5109161;28;19924;-70
2023/12/28 16:33:13;;;;;;;;;;;;;;;;;;5101008;28;20399;-70
2023/12/28 16:35:39;;;;;;;;;;;;;;;;;;5111470;28;20068;-69